Wawona, CA

5:05 AM PDT on August 21, 2014 (GMT -0700)
Merced Municipal-Macready | Change Station
CLOSE
Current Station
Airport
Location: Merced,
Elevation: 154 ft
Nearby Weather Stations

Elev 154 ft 37.28 °N, 120.51 °W | Updated 12 minutes ago

Clear
Clear
64 °F
Feels Like 64 °F
N
7
Wind Variable Wind from North

Today
High -- | Low -- °F
--% Chance of Precip.
Yesterday
High -- | Low -- °F
Precip. -- in
6:19 AM 7:43 PM
Waning Crescent, 14% visible
Pressure 29.87 in
Visibility 10.0 miles
Clouds Clear
Dew Point 56 °F
Humidity 75%
Rainfall 0.00 in
Snow Depth Not available.
UV 0 out of 12
Pollen 8.30 out of 12
Air Quality Not available.
Flu Activity Not available.
METAR KMCE 211153Z AUTO 36006KT 10SM CLR 18/13 A2987 RMK AO2 SLP115 T01780133 10228 20172 58001

More Conditions Fewer Conditions

Pressure 29.87 in
Visibility 10.0 miles
Clouds Clear
Dew Point 56 °F
Humidity 75%
Rainfall 0.00 in
Snow Depth Not available.
UV 0 out of 12
Pollen 8.30 out of 12
Air Quality Not available.
Flu Activity Not available.
METAR KMCE 211153Z AUTO 36006KT 10SM CLR 18/13 A2987 RMK AO2 SLP115 T01780133 10228 20172 58001

More Conditions Fewer Conditions

10-Day Weather Forecast

Almanac

Astronomy

Aug. 21, 2014 Rise Set
Actual Time 6:19 AM PDT 7:43 PM PDT
Civil Twilight 5:52 AM PDT 8:10 PM PDT
Nautical Twilight 5:19 AM PDT 8:43 PM PDT
Astronomical Twilight 4:44 AM PDT 9:18 PM PDT
Moon 2:56 AM PDT 5:14 PM PDT
Length of Visible Light 14h 18m
Length of Day
13h 23m
Tomorrow will be 2m 13s shorter.
Waning Crescent, 14% of the Moon is Illuminated
Today
Waning Crescent
Aug 25
New
Sep 2
First Quarter
Sep 8
Full
Sep 15
Last Quarter

Today's Extremes

State Highs State Lows

Community

WunderPhotos

Upload Photos

1,745,882 photos uploaded!

Nearby

Snow Depth

Station Depth Elevation
Leavitt Lake 0 in 9400 ft
Leavitt Meadows 1 in 7200 ft
Summit Meadow 1 in 9122 ft
Ebbetts Pass 0 in 8700 ft
Blue Lakes 0 in 8000 ft

Earthquake Activity

City Distance Mag. Time & Date
King City, California 115 miles 2.7 10:26 PM PDT
2014-08-15
Kettleman City, California 114 miles 2.9 11:32 PM PDT
2014-08-14
King City, California 115 miles 2.9 8:01 PM PDT
2014-08-14
Minimum magnitude displayed is 2.5.

Coastal Water Temperatures

Place Temperature
No Stations Reporting

Nearby Weather Stations